sensor_id;sensor_type;location;lat;lon;timestamp;temperature;humidity
45837;DHT22;31548;51.420;-0.040;2024-02-21T00:02:08;10.10;99.90
45837;DHT22;31548;51.420;-0.040;2024-02-21T00:04:36;10.00;99.90
45837;DHT22;31548;51.420;-0.040;2024-02-21T00:07:06;10.10;99.90
45837;DHT22;31548;51.420;-0.040;2024-02-21T00:09:33;10.10;99.90
45837;DHT22;31548;51.420;-0.040;2024-02-21T00:12:01;10.10;99.90
45837;DHT22;31548;51.420;-0.040;2024-02-21T00:14:30;10.10;99.90
45837;DHT22;31548;51.420;-0.040;2024-02-21T00:16:57;10.10;99.90
45837;DHT22;31548;51.420;-0.040;2024-02-21T00:19:25;10.10;99.90
45837;DHT22;31548;51.420;-0.040;2024-02-21T00:21:53;10.10;99.90
45837;DHT22;31548;51.420;-0.040;2024-02-21T00:24:20;10.10;99.90
45837;DHT22;31548;51.420;-0.040;2024-02-21T00:26:48;10.10;99.90
45837;DHT22;31548;51.420;-0.040;2024-02-21T00:29:15;10.10;99.90
45837;DHT22;31548;51.420;-0.040;2024-02-21T00:31:43;10.10;99.90
45837;DHT22;31548;51.420;-0.040;2024-02-21T00:34:12;10.10;99.90
45837;DHT22;31548;51.420;-0.040;2024-02-21T00:36:40;10.20;99.90
45837;DHT22;31548;51.420;-0.040;2024-02-21T00:39:08;10.10;99.90
45837;DHT22;31548;51.420;-0.040;2024-02-21T00:41:35;10.20;99.90
45837;DHT22;31548;51.420;-0.040;2024-02-21T00:44:03;10.20;99.90
45837;DHT22;31548;51.420;-0.040;2024-02-21T00:46:33;10.20;99.90
45837;DHT22;31548;51.420;-0.040;2024-02-21T00:49:00;10.20;99.90
45837;DHT22;31548;51.420;-0.040;2024-02-21T00:51:28;10.10;99.90
45837;DHT22;31548;51.420;-0.040;2024-02-21T00:53:55;10.10;99.90
45837;DHT22;31548;51.420;-0.040;2024-02-21T00:56:23;10.10;99.90
45837;DHT22;31548;51.420;-0.040;2024-02-21T00:58:50;10.10;99.90
45837;DHT22;31548;51.420;-0.040;2024-02-21T01:01:24;10.10;99.90
45837;DHT22;31548;51.420;-0.040;2024-02-21T01:03:52;10.20;99.90
45837;DHT22;31548;51.420;-0.040;2024-02-21T01:06:26;10.10;99.90
45837;DHT22;31548;51.420;-0.040;2024-02-21T01:08:53;10.10;99.90
45837;DHT22;31548;51.420;-0.040;2024-02-21T01:11:21;10.20;99.90
45837;DHT22;31548;51.420;-0.040;2024-02-21T01:13:49;10.10;99.90
45837;DHT22;31548;51.420;-0.040;2024-02-21T01:16:16;10.10;99.90
45837;DHT22;31548;51.420;-0.040;2024-02-21T01:18:44;10.10;99.90
45837;DHT22;31548;51.420;-0.040;2024-02-21T01:21:11;10.10;99.90
45837;DHT22;31548;51.420;-0.040;2024-02-21T01:23:39;10.10;99.90
45837;DHT22;31548;51.420;-0.040;2024-02-21T01:26:07;10.10;99.90
45837;DHT22;31548;51.420;-0.040;2024-02-21T01:28:35;10.10;99.90
45837;DHT22;31548;51.420;-0.040;2024-02-21T01:31:03;10.10;99.90
45837;DHT22;31548;51.420;-0.040;2024-02-21T01:33:31;10.10;99.90
45837;DHT22;31548;51.420;-0.040;2024-02-21T01:36:02;10.10;99.90
45837;DHT22;31548;51.420;-0.040;2024-02-21T01:38:30;10.10;99.90
45837;DHT22;31548;51.420;-0.040;2024-02-21T01:40:59;10.10;99.90
45837;DHT22;31548;51.420;-0.040;2024-02-21T01:43:27;10.10;99.90
45837;DHT22;31548;51.420;-0.040;2024-02-21T01:45:56;10.10;99.90
45837;DHT22;31548;51.420;-0.040;2024-02-21T01:48:24;10.00;99.90
45837;DHT22;31548;51.420;-0.040;2024-02-21T01:50:54;10.10;99.90
45837;DHT22;31548;51.420;-0.040;2024-02-21T01:53:32;10.00;99.90
45837;DHT22;31548;51.420;-0.040;2024-02-21T01:56:00;10.10;99.90
45837;DHT22;31548;51.420;-0.040;2024-02-21T01:58:29;10.10;99.90
45837;DHT22;31548;51.420;-0.040;2024-02-21T02:00:57;10.10;99.90
45837;DHT22;31548;51.420;-0.040;2024-02-21T02:03:25;10.10;99.90
45837;DHT22;31548;51.420;-0.040;2024-02-21T02:05:54;10.10;99.90
45837;DHT22;31548;51.420;-0.040;2024-02-21T02:08:22;10.10;99.90
45837;DHT22;31548;51.420;-0.040;2024-02-21T02:10:50;10.00;99.90
45837;DHT22;31548;51.420;-0.040;2024-02-21T02:13:18;10.10;99.90
45837;DHT22;31548;51.420;-0.040;2024-02-21T02:15:47;10.10;99.90
45837;DHT22;31548;51.420;-0.040;2024-02-21T02:18:16;10.10;99.90
45837;DHT22;31548;51.420;-0.040;2024-02-21T02:20:45;10.00;99.90
45837;DHT22;31548;51.420;-0.040;2024-02-21T02:23:31;10.00;99.90
45837;DHT22;31548;51.420;-0.040;2024-02-21T02:25:59;10.00;99.90
45837;DHT22;31548;51.420;-0.040;2024-02-21T02:28:28;10.00;99.90
45837;DHT22;31548;51.420;-0.040;2024-02-21T02:30:56;10.00;99.90
45837;DHT22;31548;51.420;-0.040;2024-02-21T02:33:23;10.00;99.90
45837;DHT22;31548;51.420;-0.040;2024-02-21T02:35:51;10.00;99.90
45837;DHT22;31548;51.420;-0.040;2024-02-21T02:38:19;10.00;99.90
45837;DHT22;31548;51.420;-0.040;2024-02-21T02:40:46;10.00;99.90
45837;DHT22;31548;51.420;-0.040;2024-02-21T02:43:14;10.00;99.90
45837;DHT22;31548;51.420;-0.040;2024-02-21T02:45:41;10.00;99.90
45837;DHT22;31548;51.420;-0.040;2024-02-21T02:48:09;10.00;99.90
45837;DHT22;31548;51.420;-0.040;2024-02-21T02:50:37;10.00;99.90
45837;DHT22;31548;51.420;-0.040;2024-02-21T02:53:04;10.10;99.90
45837;DHT22;31548;51.420;-0.040;2024-02-21T02:55:32;10.00;99.90
45837;DHT22;31548;51.420;-0.040;2024-02-21T02:58:00;10.10;99.90
45837;DHT22;31548;51.420;-0.040;2024-02-21T03:00:27;10.10;99.90
45837;DHT22;31548;51.420;-0.040;2024-02-21T03:02:55;10.10;99.90
45837;DHT22;31548;51.420;-0.040;2024-02-21T03:05:22;10.10;99.90
45837;DHT22;31548;51.420;-0.040;2024-02-21T03:07:50;10.10;99.90
45837;DHT22;31548;51.420;-0.040;2024-02-21T03:10:18;10.00;99.90
45837;DHT22;31548;51.420;-0.040;2024-02-21T03:12:46;10.10;99.90
45837;DHT22;31548;51.420;-0.040;2024-02-21T03:15:14;10.10;99.90
45837;DHT22;31548;51.420;-0.040;2024-02-21T03:17:42;10.10;99.90
45837;DHT22;31548;51.420;-0.040;2024-02-21T03:20:10;10.00;99.90
45837;DHT22;31548;51.420;-0.040;2024-02-21T03:22:40;10.00;99.90
45837;DHT22;31548;51.420;-0.040;2024-02-21T03:25:09;10.00;99.90
45837;DHT22;31548;51.420;-0.040;2024-02-21T03:27:38;10.10;99.90
45837;DHT22;31548;51.420;-0.040;2024-02-21T03:30:06;10.00;99.90
45837;DHT22;31548;51.420;-0.040;2024-02-21T03:32:34;10.00;99.90
45837;DHT22;31548;51.420;-0.040;2024-02-21T03:35:02;10.00;99.90
45837;DHT22;31548;51.420;-0.040;2024-02-21T03:37:30;10.00;99.90
45837;DHT22;31548;51.420;-0.040;2024-02-21T03:39:58;10.00;99.90
45837;DHT22;31548;51.420;-0.040;2024-02-21T03:42:25;9.90;99.90
45837;DHT22;31548;51.420;-0.040;2024-02-21T03:44:53;10.00;99.90
45837;DHT22;31548;51.420;-0.040;2024-02-21T03:47:20;10.00;99.90
45837;DHT22;31548;51.420;-0.040;2024-02-21T03:49:48;10.00;99.90
45837;DHT22;31548;51.420;-0.040;2024-02-21T03:52:16;9.90;99.90
45837;DHT22;31548;51.420;-0.040;2024-02-21T03:54:44;9.90;99.90
45837;DHT22;31548;51.420;-0.040;2024-02-21T03:57:11;9.90;99.90
45837;DHT22;31548;51.420;-0.040;2024-02-21T03:59:39;9.90;99.90
45837;DHT22;31548;51.420;-0.040;2024-02-21T04:02:10;9.90;99.90
45837;DHT22;31548;51.420;-0.040;2024-02-21T04:04:45;9.90;99.90
45837;DHT22;31548;51.420;-0.040;2024-02-21T04:07:16;9.90;99.90
45837;DHT22;31548;51.420;-0.040;2024-02-21T04:09:44;9.90;99.90
45837;DHT22;31548;51.420;-0.040;2024-02-21T04:12:11;9.90;99.90
45837;DHT22;31548;51.420;-0.040;2024-02-21T04:14:39;9.90;99.90
45837;DHT22;31548;51.420;-0.040;2024-02-21T04:17:10;9.90;99.90
45837;DHT22;31548;51.420;-0.040;2024-02-21T04:19:37;9.80;99.90
45837;DHT22;31548;51.420;-0.040;2024-02-21T04:22:06;9.90;99.90
45837;DHT22;31548;51.420;-0.040;2024-02-21T04:24:33;9.90;99.90
45837;DHT22;31548;51.420;-0.040;2024-02-21T04:27:01;9.90;99.90
45837;DHT22;31548;51.420;-0.040;2024-02-21T04:29:28;9.80;99.90
45837;DHT22;31548;51.420;-0.040;2024-02-21T04:31:56;9.90;99.90
45837;DHT22;31548;51.420;-0.040;2024-02-21T04:34:24;9.80;99.90
45837;DHT22;31548;51.420;-0.040;2024-02-21T04:36:51;9.80;99.90
45837;DHT22;31548;51.420;-0.040;2024-02-21T04:39:19;9.80;99.90
45837;DHT22;31548;51.420;-0.040;2024-02-21T04:41:46;9.80;99.90
45837;DHT22;31548;51.420;-0.040;2024-02-21T04:44:14;9.90;99.90
45837;DHT22;31548;51.420;-0.040;2024-02-21T04:46:43;9.80;99.90
45837;DHT22;31548;51.420;-0.040;2024-02-21T04:49:10;9.80;99.90
45837;DHT22;31548;51.420;-0.040;2024-02-21T04:51:40;9.80;99.90
45837;DHT22;31548;51.420;-0.040;2024-02-21T04:54:07;9.80;99.90
45837;DHT22;31548;51.420;-0.040;2024-02-21T04:56:35;9.80;99.90
45837;DHT22;31548;51.420;-0.040;2024-02-21T04:59:02;9.80;99.90
45837;DHT22;31548;51.420;-0.040;2024-02-21T05:01:30;9.80;99.90
45837;DHT22;31548;51.420;-0.040;2024-02-21T05:03:58;9.70;99.90
45837;DHT22;31548;51.420;-0.040;2024-02-21T05:06:26;9.70;99.90
45837;DHT22;31548;51.420;-0.040;2024-02-21T05:08:54;9.80;99.90
45837;DHT22;31548;51.420;-0.040;2024-02-21T05:11:22;9.70;99.90
45837;DHT22;31548;51.420;-0.040;2024-02-21T05:13:50;9.80;99.90
45837;DHT22;31548;51.420;-0.040;2024-02-21T05:16:18;9.70;99.90
45837;DHT22;31548;51.420;-0.040;2024-02-21T05:18:47;9.80;99.90
45837;DHT22;31548;51.420;-0.040;2024-02-21T05:21:14;9.70;99.90
45837;DHT22;31548;51.420;-0.040;2024-02-21T05:23:42;9.70;99.90
45837;DHT22;31548;51.420;-0.040;2024-02-21T05:26:09;9.70;99.90
45837;DHT22;31548;51.420;-0.040;2024-02-21T05:28:37;9.70;99.90
45837;DHT22;31548;51.420;-0.040;2024-02-21T05:31:05;9.70;99.90
45837;DHT22;31548;51.420;-0.040;2024-02-21T05:33:33;9.70;99.90
45837;DHT22;31548;51.420;-0.040;2024-02-21T05:36:00;9.70;99.90
45837;DHT22;31548;51.420;-0.040;2024-02-21T05:38:28;9.80;99.90
45837;DHT22;31548;51.420;-0.040;2024-02-21T05:40:56;9.70;99.90
45837;DHT22;31548;51.420;-0.040;2024-02-21T05:43:24;9.70;99.90
45837;DHT22;31548;51.420;-0.040;2024-02-21T05:45:52;9.70;99.90
45837;DHT22;31548;51.420;-0.040;2024-02-21T05:48:20;9.80;99.90
45837;DHT22;31548;51.420;-0.040;2024-02-21T05:50:47;9.80;99.90
45837;DHT22;31548;51.420;-0.040;2024-02-21T05:53:15;9.80;99.90
45837;DHT22;31548;51.420;-0.040;2024-02-21T05:55:43;9.70;99.90
45837;DHT22;31548;51.420;-0.040;2024-02-21T05:58:11;9.70;99.90
45837;DHT22;31548;51.420;-0.040;2024-02-21T06:00:41;9.70;99.90
45837;DHT22;31548;51.420;-0.040;2024-02-21T06:03:08;9.60;99.90
45837;DHT22;31548;51.420;-0.040;2024-02-21T06:05:37;9.50;99.90
45837;DHT22;31548;51.420;-0.040;2024-02-21T06:08:06;9.50;99.90
45837;DHT22;31548;51.420;-0.040;2024-02-21T06:10:34;9.50;99.90
45837;DHT22;31548;51.420;-0.040;2024-02-21T06:13:02;9.50;99.90
45837;DHT22;31548;51.420;-0.040;2024-02-21T06:15:29;9.50;99.90
45837;DHT22;31548;51.420;-0.040;2024-02-21T06:17:57;9.50;99.90
45837;DHT22;31548;51.420;-0.040;2024-02-21T06:20:27;9.50;99.90
45837;DHT22;31548;51.420;-0.040;2024-02-21T06:22:55;9.50;99.90
45837;DHT22;31548;51.420;-0.040;2024-02-21T06:25:23;9.40;99.90
45837;DHT22;31548;51.420;-0.040;2024-02-21T06:27:51;9.40;99.90
45837;DHT22;31548;51.420;-0.040;2024-02-21T06:30:19;9.40;99.90
45837;DHT22;31548;51.420;-0.040;2024-02-21T06:32:46;9.40;99.90
45837;DHT22;31548;51.420;-0.040;2024-02-21T06:35:14;9.40;99.90
45837;DHT22;31548;51.420;-0.040;2024-02-21T06:37:41;9.40;99.90
45837;DHT22;31548;51.420;-0.040;2024-02-21T06:40:09;9.40;99.90
45837;DHT22;31548;51.420;-0.040;2024-02-21T06:42:37;9.40;99.90
45837;DHT22;31548;51.420;-0.040;2024-02-21T06:45:05;9.40;99.90
45837;DHT22;31548;51.420;-0.040;2024-02-21T06:47:32;9.30;99.90
45837;DHT22;31548;51.420;-0.040;2024-02-21T06:50:00;9.40;99.90
45837;DHT22;31548;51.420;-0.040;2024-02-21T06:52:28;9.40;99.90
45837;DHT22;31548;51.420;-0.040;2024-02-21T06:54:55;9.40;99.90
45837;DHT22;31548;51.420;-0.040;2024-02-21T06:57:26;9.40;99.90
45837;DHT22;31548;51.420;-0.040;2024-02-21T06:59:53;9.40;99.90
45837;DHT22;31548;51.420;-0.040;2024-02-21T07:02:21;9.40;99.90
45837;DHT22;31548;51.420;-0.040;2024-02-21T07:04:49;9.40;99.90
45837;DHT22;31548;51.420;-0.040;2024-02-21T07:07:17;9.30;99.90
45837;DHT22;31548;51.420;-0.040;2024-02-21T07:09:45;9.30;99.90
45837;DHT22;31548;51.420;-0.040;2024-02-21T07:12:15;9.30;99.90
45837;DHT22;31548;51.420;-0.040;2024-02-21T07:14:44;9.30;99.90
45837;DHT22;31548;51.420;-0.040;2024-02-21T07:17:11;9.30;99.90
45837;DHT22;31548;51.420;-0.040;2024-02-21T07:19:39;9.30;99.90
45837;DHT22;31548;51.420;-0.040;2024-02-21T07:22:07;9.30;99.90
45837;DHT22;31548;51.420;-0.040;2024-02-21T07:24:34;9.40;99.90
45837;DHT22;31548;51.420;-0.040;2024-02-21T07:27:02;9.40;99.90
45837;DHT22;31548;51.420;-0.040;2024-02-21T07:29:32;9.40;99.90
45837;DHT22;31548;51.420;-0.040;2024-02-21T07:32:00;9.40;99.90
45837;DHT22;31548;51.420;-0.040;2024-02-21T07:34:27;9.40;99.90
45837;DHT22;31548;51.420;-0.040;2024-02-21T07:36:55;9.40;99.90
45837;DHT22;31548;51.420;-0.040;2024-02-21T07:39:23;9.40;99.90
45837;DHT22;31548;51.420;-0.040;2024-02-21T07:41:53;9.40;99.90
45837;DHT22;31548;51.420;-0.040;2024-02-21T07:44:21;9.40;99.90
45837;DHT22;31548;51.420;-0.040;2024-02-21T07:46:48;9.40;99.90
45837;DHT22;31548;51.420;-0.040;2024-02-21T07:49:16;9.40;99.90
45837;DHT22;31548;51.420;-0.040;2024-02-21T07:51:43;9.40;99.90
45837;DHT22;31548;51.420;-0.040;2024-02-21T07:54:11;9.40;99.90
45837;DHT22;31548;51.420;-0.040;2024-02-21T07:56:46;9.50;99.90
45837;DHT22;31548;51.420;-0.040;2024-02-21T07:59:14;9.50;99.90
45837;DHT22;31548;51.420;-0.040;2024-02-21T08:01:42;9.40;99.90
45837;DHT22;31548;51.420;-0.040;2024-02-21T08:04:12;9.50;99.90
45837;DHT22;31548;51.420;-0.040;2024-02-21T08:06:40;9.50;99.90
45837;DHT22;31548;51.420;-0.040;2024-02-21T08:09:08;9.50;99.90
45837;DHT22;31548;51.420;-0.040;2024-02-21T08:11:38;9.50;99.90
45837;DHT22;31548;51.420;-0.040;2024-02-21T08:14:09;9.50;99.90
45837;DHT22;31548;51.420;-0.040;2024-02-21T08:16:37;9.60;99.90
45837;DHT22;31548;51.420;-0.040;2024-02-21T08:19:04;9.60;99.90
45837;DHT22;31548;51.420;-0.040;2024-02-21T08:21:32;9.60;99.90
45837;DHT22;31548;51.420;-0.040;2024-02-21T08:23:59;9.60;99.90
45837;DHT22;31548;51.420;-0.040;2024-02-21T08:26:27;9.60;99.90
45837;DHT22;31548;51.420;-0.040;2024-02-21T08:28:57;9.60;99.90
45837;DHT22;31548;51.420;-0.040;2024-02-21T08:31:27;9.70;99.90
45837;DHT22;31548;51.420;-0.040;2024-02-21T08:34:01;9.70;99.90
45837;DHT22;31548;51.420;-0.040;2024-02-21T08:36:31;9.70;99.90
45837;DHT22;31548;51.420;-0.040;2024-02-21T08:39:00;9.70;99.90
45837;DHT22;31548;51.420;-0.040;2024-02-21T08:41:28;9.70;99.90
45837;DHT22;31548;51.420;-0.040;2024-02-21T08:44:15;9.70;99.90
45837;DHT22;31548;51.420;-0.040;2024-02-21T08:46:43;9.80;99.90
45837;DHT22;31548;51.420;-0.040;2024-02-21T08:49:10;9.80;99.90
45837;DHT22;31548;51.420;-0.040;2024-02-21T08:51:38;9.80;99.90
45837;DHT22;31548;51.420;-0.040;2024-02-21T08:54:06;9.80;99.90
45837;DHT22;31548;51.420;-0.040;2024-02-21T08:56:33;9.80;99.90
45837;DHT22;31548;51.420;-0.040;2024-02-21T08:59:01;9.80;99.90
45837;DHT22;31548;51.420;-0.040;2024-02-21T09:01:29;9.80;99.90
45837;DHT22;31548;51.420;-0.040;2024-02-21T09:03:57;9.80;99.90
45837;DHT22;31548;51.420;-0.040;2024-02-21T09:06:25;9.80;99.90
45837;DHT22;31548;51.420;-0.040;2024-02-21T09:08:56;9.90;99.90
45837;DHT22;31548;51.420;-0.040;2024-02-21T09:11:25;9.80;99.90
45837;DHT22;31548;51.420;-0.040;2024-02-21T09:13:55;9.90;99.90
45837;DHT22;31548;51.420;-0.040;2024-02-21T09:16:23;9.90;99.90
45837;DHT22;31548;51.420;-0.040;2024-02-21T09:18:51;9.90;99.90
45837;DHT22;31548;51.420;-0.040;2024-02-21T09:21:19;9.90;99.90
45837;DHT22;31548;51.420;-0.040;2024-02-21T09:23:47;9.90;99.90
45837;DHT22;31548;51.420;-0.040;2024-02-21T09:26:15;9.90;99.90
45837;DHT22;31548;51.420;-0.040;2024-02-21T09:28:44;9.90;99.90
45837;DHT22;31548;51.420;-0.040;2024-02-21T09:31:12;9.90;99.90
45837;DHT22;31548;51.420;-0.040;2024-02-21T09:33:40;9.90;99.90
45837;DHT22;31548;51.420;-0.040;2024-02-21T09:36:08;9.90;99.90
45837;DHT22;31548;51.420;-0.040;2024-02-21T09:38:36;9.90;99.90
45837;DHT22;31548;51.420;-0.040;2024-02-21T09:41:15;9.90;99.90
45837;DHT22;31548;51.420;-0.040;2024-02-21T09:43:52;10.00;99.90
45837;DHT22;31548;51.420;-0.040;2024-02-21T09:46:57;9.90;99.90
45837;DHT22;31548;51.420;-0.040;2024-02-21T09:49:34;10.00;99.90
45837;DHT22;31548;51.420;-0.040;2024-02-21T09:52:06;10.00;99.90
45837;DHT22;31548;51.420;-0.040;2024-02-21T09:54:34;10.00;99.90
45837;DHT22;31548;51.420;-0.040;2024-02-21T09:57:03;10.00;99.90
45837;DHT22;31548;51.420;-0.040;2024-02-21T09:59:34;10.00;99.90
45837;DHT22;31548;51.420;-0.040;2024-02-21T10:02:01;10.00;99.90
45837;DHT22;31548;51.420;-0.040;2024-02-21T10:04:30;10.00;99.90
45837;DHT22;31548;51.420;-0.040;2024-02-21T10:07:02;10.00;99.90
45837;DHT22;31548;51.420;-0.040;2024-02-21T10:09:30;10.00;99.90
45837;DHT22;31548;51.420;-0.040;2024-02-21T10:12:11;10.00;99.90
45837;DHT22;31548;51.420;-0.040;2024-02-21T10:14:40;10.00;99.90
45837;DHT22;31548;51.420;-0.040;2024-02-21T10:17:14;10.10;99.90
45837;DHT22;31548;51.420;-0.040;2024-02-21T10:19:42;10.10;99.90
45837;DHT22;31548;51.420;-0.040;2024-02-21T10:22:10;10.10;99.90
45837;DHT22;31548;51.420;-0.040;2024-02-21T10:24:41;10.10;99.90
45837;DHT22;31548;51.420;-0.040;2024-02-21T10:27:10;10.10;99.90
45837;DHT22;31548;51.420;-0.040;2024-02-21T10:29:41;10.00;99.90
45837;DHT22;31548;51.420;-0.040;2024-02-21T10:32:10;10.10;99.90
45837;DHT22;31548;51.420;-0.040;2024-02-21T10:34:41;10.10;99.90
45837;DHT22;31548;51.420;-0.040;2024-02-21T10:37:13;10.10;99.90
45837;DHT22;31548;51.420;-0.040;2024-02-21T10:39:42;10.10;99.90
45837;DHT22;31548;51.420;-0.040;2024-02-21T10:42:12;10.10;99.90
45837;DHT22;31548;51.420;-0.040;2024-02-21T10:44:41;10.10;99.90
45837;DHT22;31548;51.420;-0.040;2024-02-21T10:47:11;10.10;99.90
45837;DHT22;31548;51.420;-0.040;2024-02-21T10:49:42;10.10;99.90
45837;DHT22;31548;51.420;-0.040;2024-02-21T10:52:42;10.10;99.90
45837;DHT22;31548;51.420;-0.040;2024-02-21T10:55:20;10.10;99.90
45837;DHT22;31548;51.420;-0.040;2024-02-21T10:57:51;10.10;99.90
45837;DHT22;31548;51.420;-0.040;2024-02-21T11:00:20;10.10;99.90
45837;DHT22;31548;51.420;-0.040;2024-02-21T11:02:50;10.10;99.90
45837;DHT22;31548;51.420;-0.040;2024-02-21T11:05:18;10.20;99.90
45837;DHT22;31548;51.420;-0.040;2024-02-21T11:07:46;10.20;99.90
45837;DHT22;31548;51.420;-0.040;2024-02-21T11:10:23;10.20;99.90
45837;DHT22;31548;51.420;-0.040;2024-02-21T11:13:10;10.20;99.90
45837;DHT22;31548;51.420;-0.040;2024-02-21T11:15:38;10.30;99.90
45837;DHT22;31548;51.420;-0.040;2024-02-21T11:18:06;10.30;99.90
45837;DHT22;31548;51.420;-0.040;2024-02-21T11:20:35;10.30;99.90
45837;DHT22;31548;51.420;-0.040;2024-02-21T11:23:03;10.30;99.90
45837;DHT22;31548;51.420;-0.040;2024-02-21T11:25:31;10.30;99.90
45837;DHT22;31548;51.420;-0.040;2024-02-21T11:28:02;10.20;99.90
45837;DHT22;31548;51.420;-0.040;2024-02-21T11:30:31;10.30;99.90
45837;DHT22;31548;51.420;-0.040;2024-02-21T11:33:05;10.20;99.90
45837;DHT22;31548;51.420;-0.040;2024-02-21T11:35:34;10.30;99.90
45837;DHT22;31548;51.420;-0.040;2024-02-21T11:38:12;10.30;99.90
45837;DHT22;31548;51.420;-0.040;2024-02-21T11:40:46;10.30;99.90
45837;DHT22;31548;51.420;-0.040;2024-02-21T11:43:15;10.30;99.90
45837;DHT22;31548;51.420;-0.040;2024-02-21T11:45:43;10.40;99.90
45837;DHT22;31548;51.420;-0.040;2024-02-21T11:48:10;10.40;99.90
45837;DHT22;31548;51.420;-0.040;2024-02-21T11:50:38;10.40;99.90
45837;DHT22;31548;51.420;-0.040;2024-02-21T11:53:07;10.40;99.90
45837;DHT22;31548;51.420;-0.040;2024-02-21T11:55:34;10.40;99.90
45837;DHT22;31548;51.420;-0.040;2024-02-21T11:58:03;10.40;99.90
45837;DHT22;31548;51.420;-0.040;2024-02-21T12:00:31;10.40;99.90
45837;DHT22;31548;51.420;-0.040;2024-02-21T12:02:59;10.40;99.90
45837;DHT22;31548;51.420;-0.040;2024-02-21T12:05:30;10.40;99.90
45837;DHT22;31548;51.420;-0.040;2024-02-21T12:08:00;10.40;99.90
45837;DHT22;31548;51.420;-0.040;2024-02-21T12:10:28;10.40;99.90
45837;DHT22;31548;51.420;-0.040;2024-02-21T12:13:08;10.40;99.90
45837;DHT22;31548;51.420;-0.040;2024-02-21T12:15:38;10.40;99.90
45837;DHT22;31548;51.420;-0.040;2024-02-21T12:18:07;10.50;99.90
45837;DHT22;31548;51.420;-0.040;2024-02-21T12:20:35;10.50;99.90
45837;DHT22;31548;51.420;-0.040;2024-02-21T12:23:03;10.50;99.90
45837;DHT22;31548;51.420;-0.040;2024-02-21T12:25:31;10.50;99.90
45837;DHT22;31548;51.420;-0.040;2024-02-21T12:27:59;10.50;99.90
45837;DHT22;31548;51.420;-0.040;2024-02-21T12:30:27;10.60;99.90
45837;DHT22;31548;51.420;-0.040;2024-02-21T12:32:55;10.60;99.90
45837;DHT22;31548;51.420;-0.040;2024-02-21T12:35:23;10.70;99.90
45837;DHT22;31548;51.420;-0.040;2024-02-21T12:37:51;10.70;99.90
45837;DHT22;31548;51.420;-0.040;2024-02-21T12:40:18;10.70;99.90
45837;DHT22;31548;51.420;-0.040;2024-02-21T12:42:46;10.80;99.90
45837;DHT22;31548;51.420;-0.040;2024-02-21T12:45:32;10.80;99.90
45837;DHT22;31548;51.420;-0.040;2024-02-21T12:48:23;10.80;99.90
45837;DHT22;31548;51.420;-0.040;2024-02-21T12:50:51;10.80;99.90
45837;DHT22;31548;51.420;-0.040;2024-02-21T12:53:19;10.80;99.90
45837;DHT22;31548;51.420;-0.040;2024-02-21T12:55:59;10.90;99.90
45837;DHT22;31548;51.420;-0.040;2024-02-21T12:58:27;10.90;99.90
45837;DHT22;31548;51.420;-0.040;2024-02-21T13:00:56;11.00;99.90
45837;DHT22;31548;51.420;-0.040;2024-02-21T13:03:24;11.00;99.90
45837;DHT22;31548;51.420;-0.040;2024-02-21T13:05:51;11.00;99.90
45837;DHT22;31548;51.420;-0.040;2024-02-21T13:08:19;11.10;99.90
45837;DHT22;31548;51.420;-0.040;2024-02-21T13:29:57;11.10;99.90
45837;DHT22;31548;51.420;-0.040;2024-02-21T13:32:26;11.10;99.90
45837;DHT22;31548;51.420;-0.040;2024-02-21T13:34:53;11.10;99.90
45837;DHT22;31548;51.420;-0.040;2024-02-21T13:37:21;11.10;99.90
45837;DHT22;31548;51.420;-0.040;2024-02-21T13:39:49;11.10;99.90
45837;DHT22;31548;51.420;-0.040;2024-02-21T13:42:16;11.10;99.90
45837;DHT22;31548;51.420;-0.040;2024-02-21T13:52:53;11.20;99.90
45837;DHT22;31548;51.420;-0.040;2024-02-21T13:55:20;11.20;99.90
45837;DHT22;31548;51.420;-0.040;2024-02-21T13:57:49;11.20;99.90
45837;DHT22;31548;51.420;-0.040;2024-02-21T14:00:17;11.10;99.90
45837;DHT22;31548;51.420;-0.040;2024-02-21T14:02:45;11.20;99.90
45837;DHT22;31548;51.420;-0.040;2024-02-21T14:05:13;11.20;99.90
45837;DHT22;31548;51.420;-0.040;2024-02-21T14:07:41;11.20;99.90
45837;DHT22;31548;51.420;-0.040;2024-02-21T14:10:09;11.10;99.90
45837;DHT22;31548;51.420;-0.040;2024-02-21T14:12:37;11.10;99.90
45837;DHT22;31548;51.420;-0.040;2024-02-21T14:15:05;11.10;99.90
45837;DHT22;31548;51.420;-0.040;2024-02-21T14:17:33;11.10;99.90
45837;DHT22;31548;51.420;-0.040;2024-02-21T14:20:02;11.10;99.90
45837;DHT22;31548;51.420;-0.040;2024-02-21T14:22:35;11.10;99.90
45837;DHT22;31548;51.420;-0.040;2024-02-21T14:25:09;11.10;99.90
45837;DHT22;31548;51.420;-0.040;2024-02-21T14:27:37;11.10;99.90
45837;DHT22;31548;51.420;-0.040;2024-02-21T14:30:05;11.10;99.90
45837;DHT22;31548;51.420;-0.040;2024-02-21T14:32:34;11.10;99.90
45837;DHT22;31548;51.420;-0.040;2024-02-21T14:35:02;11.10;99.90
45837;DHT22;31548;51.420;-0.040;2024-02-21T14:37:38;11.10;99.90
45837;DHT22;31548;51.420;-0.040;2024-02-21T14:40:06;11.10;99.90
45837;DHT22;31548;51.420;-0.040;2024-02-21T14:42:33;11.10;99.90
45837;DHT22;31548;51.420;-0.040;2024-02-21T14:45:01;11.20;99.90
45837;DHT22;31548;51.420;-0.040;2024-02-21T14:47:32;11.10;99.90
45837;DHT22;31548;51.420;-0.040;2024-02-21T14:50:02;11.10;99.90
45837;DHT22;31548;51.420;-0.040;2024-02-21T14:52:32;11.10;99.90
45837;DHT22;31548;51.420;-0.040;2024-02-21T14:55:01;11.20;99.90
45837;DHT22;31548;51.420;-0.040;2024-02-21T14:57:30;11.20;99.90
45837;DHT22;31548;51.420;-0.040;2024-02-21T14:59:57;11.20;99.90
45837;DHT22;31548;51.420;-0.040;2024-02-21T15:02:27;11.10;99.90
45837;DHT22;31548;51.420;-0.040;2024-02-21T15:04:55;11.20;99.90
45837;DHT22;31548;51.420;-0.040;2024-02-21T15:07:23;11.20;99.90
45837;DHT22;31548;51.420;-0.040;2024-02-21T15:09:52;11.10;99.90
45837;DHT22;31548;51.420;-0.040;2024-02-21T15:12:20;11.20;99.90
45837;DHT22;31548;51.420;-0.040;2024-02-21T15:14:50;11.20;99.90
45837;DHT22;31548;51.420;-0.040;2024-02-21T15:17:20;11.20;99.90
45837;DHT22;31548;51.420;-0.040;2024-02-21T15:19:48;11.20;99.90
45837;DHT22;31548;51.420;-0.040;2024-02-21T15:22:17;11.20;99.90
45837;DHT22;31548;51.420;-0.040;2024-02-21T15:24:47;11.20;99.90
45837;DHT22;31548;51.420;-0.040;2024-02-21T15:27:16;11.20;99.90
45837;DHT22;31548;51.420;-0.040;2024-02-21T15:29:44;11.20;99.90
45837;DHT22;31548;51.420;-0.040;2024-02-21T15:32:12;11.20;99.90
45837;DHT22;31548;51.420;-0.040;2024-02-21T15:34:40;11.20;99.90
45837;DHT22;31548;51.420;-0.040;2024-02-21T15:37:08;11.20;99.90
45837;DHT22;31548;51.420;-0.040;2024-02-21T15:39:38;11.20;99.90
45837;DHT22;31548;51.420;-0.040;2024-02-21T15:42:06;11.20;99.90
45837;DHT22;31548;51.420;-0.040;2024-02-21T15:44:33;11.20;99.90
45837;DHT22;31548;51.420;-0.040;2024-02-21T15:47:01;11.30;99.90
45837;DHT22;31548;51.420;-0.040;2024-02-21T15:49:29;11.20;99.90
45837;DHT22;31548;51.420;-0.040;2024-02-21T15:51:57;11.20;99.90
45837;DHT22;31548;51.420;-0.040;2024-02-21T15:54:26;11.20;99.90
45837;DHT22;31548;51.420;-0.040;2024-02-21T15:56:57;11.30;99.90
45837;DHT22;31548;51.420;-0.040;2024-02-21T15:59:27;11.30;99.90
45837;DHT22;31548;51.420;-0.040;2024-02-21T16:01:55;11.30;99.90